Grayson, Louisiana
Current Conditions -  °F | °C
As of 2:53 PM on Thursday 18 Dec 2014 (Local Time) from KMLU Reporting Station
Overcast Overcast  
Wind Chill: 12°   Ceiling: 4800
Heat Index: 12°   Visibility: 10mi
Dew Point:   Wind: 5mph
Humidity: 75%   Direction: 50°NE
Pressure: 30.14"   Gusts: NA
Location:  32.05°N, 92.11°W
Report Text: KMLU 182053Z 05004KT 10SM OVC048 12/08 A3014 RMK AO2 SLP206 T01220078 56015
Loading
Personal Weather Stations






























Interactive Weather Map New forecast layout! Learn more

10-Day Weather Forecast

Advertisements
Track Severe Weather on mobile